Latest Weather Observations for Gunnedah Airport

IDN60801

Issued at 6:23 pm EST Saturday 9 May 2026 (issued every 10 minutes, with the page automatically refreshed every 10 minutes)

About weather observations | Map of weather stations | Latest weather observations for NSW | Other Formats
Station Details ID: 055202 Name: GUNNEDAH AIRPORT AWS Lat: -30.95 Lon: 150.25 Height: 262.57 m
Data from the previous 72 hours. | See also: Recent months at Gunnedah Airport
Date/Time
EST
Temp
°C
App
Temp
°C
Dew
Point
°C
Rel
Hum
%
Delta-T
°C
Wind Press
QNH
hPa
Press
MSL
hPa
Rain since
9am
mm
Dir  Spd
km/h
Gust
km/h
Spd
kts
Gust
kts
09/06:00pm 15.4 13.1 4.8 49 5.0 SSE 6 7 3 4 1023.4 1023.2 0.0
09/05:30pm 17.9 15.2 3.8 39 6.7 SSE 7 9 4 5 1023.0 1022.8 0.0
09/05:00pm 19.3 15.7 3.1 34 7.6 S 11 11 6 6 1022.6 1022.4 0.0
09/04:30pm 21.4 17.9 3.6 31 8.6 SSW 11 15 6 8 1022.5 1022.3 0.0
09/04:00pm 21.9 18.9 4.0 31 8.8 SSE 9 13 5 7 1022.4 1022.2 0.0
09/03:30pm 21.8 19.1 3.9 31 8.8 SSE 7 11 4 6 1022.3 1022.1 0.0
09/03:00pm 22.1 19.8 4.7 32 8.6 ESE 6 11 3 6 1022.3 1022.1 0.0
09/02:30pm 21.9 19.0 4.9 33 8.5 ENE 9 13 5 7 1022.4 1022.2 0.0
09/02:00pm 21.2 18.4 5.1 35 8.0 E 9 17 5 9 1022.4 1022.2 0.0
09/01:30pm 21.1 18.4 5.5 36 7.8 ENE 9 15 5 8 1022.7 1022.5 0.0
09/01:00pm 20.7 18.1 5.9 38 7.4 ESE 9 19 5 10 1023.0 1022.8 0.0
09/12:30pm 20.1 16.7 6.1 40 7.1 ESE 13 19 7 10 1023.5 1023.4 0.0
09/12:00pm 19.1 16.1 6.2 43 6.5 ESE 11 20 6 11 1024.1 1024.0 0.0
09/11:30am 18.0 14.7 6.2 46 5.9 SE 13 20 7 11 1024.6 1024.5 0.0
09/11:00am 16.6 12.9 6.1 50 5.2 SSE 15 19 8 10 1024.9 1024.8 0.0
09/10:30am 15.7 12.0 6.2 53 4.7 SE 15 24 8 13 1025.3 1025.2 0.0
09/10:00am 14.2 10.9 6.3 59 3.8 SE 13 19 7 10 1025.5 1025.4 0.0
09/09:30am 12.9 9.6 6.5 65 3.1 SE 13 17 7 9 1025.6 1025.5 0.0
09/09:00am 11.2 8.2 6.1 71 2.4 SE 11 15 6 8 1025.6 1025.5 0.0
09/08:30am 9.7 7.1 6.1 78 1.7 SE 9 11 5 6 1025.6 1025.5 0.0
09/08:00am 7.5 5.8 6.1 91 0.6 N 4 7 2 4 1025.3 1025.2 0.0
09/07:30am 5.0 3.4 4.4 96 0.3 NNW 2 9 1 5 1025.0 1024.9 0.0
09/07:00am 2.6 0.2 2.2 97 0.2 E 4 7 2 4 1024.6 1024.5 0.0
09/06:30am 2.0 -1.1 1.4 96 0.2 E 7 9 4 5 1024.1 1024.0 0.0
09/06:00am 2.0 -1.5 1.3 95 0.3 NNE 9 11 5 6 1023.9 1023.8 0.0
09/05:30am 3.2 0.5 2.6 96 0.2 ESE 6 7 3 4 1023.4 1023.2 0.0
09/05:00am 2.9 0.1 2.3 96 0.2 ESE 6 7 3 4 1023.3 1023.1 0.0
09/04:30am 2.4 0.6 1.5 94 0.4 CALM 0 7 0 4 1023.2 1023.0 0.0
09/04:00am 3.6 0.8 3.0 96 0.2 ESE 7 9 4 5 1023.0 1022.8 0.0
09/03:30am 3.1 1.5 2.2 94 0.4 CALM 0 0 0 0 1023.2 1023.0 0.0
09/03:00am 3.0 1.0 2.1 94 0.4 N 2 6 1 3 1023.1 1022.9 0.0
09/02:30am 3.6 0.9 2.6 93 0.4 SSW 6 9 3 5 1023.2 1023.0 0.0
09/02:00am 4.5 2.4 3.8 95 0.3 SSW 4 7 2 4 1023.2 1023.0 0.0
09/01:30am 3.8 2.3 2.8 93 0.4 CALM 0 0 0 0 1023.3 1023.1 0.0
09/01:00am 4.1 2.5 2.3 88 0.7 CALM 0 0 0 0 1023.4 1023.2 0.0
09/12:30am 5.3 3.2 3.8 90 0.6 W 4 6 2 3 1023.4 1023.2 0.0
09/12:00am 5.4 2.9 3.7 89 0.7 W 6 7 3 4 1023.4 1023.2 0.0
 
Date/Time
EST
Temp
°C
App
Temp
°C
Dew
Point
°C
Rel
Hum
%
Delta-T
°C
Wind Press
QNH
hPa
Press
MSL
hPa
Rain since
9am
mm
Dir  Spd
km/h
Gust
km/h
Spd
kts
Gust
kts
08/11:30pm 6.5 4.9 4.5 87 0.9 W 2 7 1 4 1023.3 1023.1 0.0
08/11:00pm 6.5 4.0 3.8 83 1.2 S 6 9 3 5 1023.5 1023.4 0.0
08/10:30pm 8.7 6.1 4.3 74 2.0 S 7 9 4 5 1023.6 1023.5 0.0
08/10:00pm 9.2 7.5 4.2 71 2.2 S 2 9 1 5 1023.6 1023.5 0.0
08/09:30pm 9.7 7.1 4.1 68 2.5 S 7 9 4 5 1023.6 1023.5 0.0
08/09:00pm 11.8 9.0 5.0 63 3.1 S 9 15 5 8 1023.5 1023.4 0.0
08/08:30pm 12.4 10.1 4.6 59 3.6 SSW 6 15 3 8 1023.4 1023.2 0.0
08/08:00pm 13.0 8.1 4.9 58 3.8 SW 20 30 11 16 1023.1 1022.9 0.0
08/07:30pm 13.7 8.0 5.1 56 4.1 SSW 24 43 13 23 1022.8 1022.6 0.0
08/07:00pm 14.9 9.6 4.9 51 4.7 SW 22 30 12 16 1022.1 1022.0 0.0
08/06:30pm 14.0 9.9 4.3 52 4.5 WSW 15 20 8 11 1021.3 1021.2 0.0
08/06:00pm 13.2 9.4 3.8 53 4.3 WSW 13 15 7 8 1020.7 1020.6 0.0
08/05:30pm 14.8 10.9 3.3 46 5.3 W 13 15 7 8 1020.5 1020.4 0.0
08/05:00pm 17.5 13.2 3.4 39 6.6 WSW 15 24 8 13 1020.5 1020.4 0.0
08/04:30pm 18.4 13.4 3.5 37 7.1 WSW 19 26 10 14 1020.4 1020.3 0.0
08/04:00pm 18.8 12.8 3.4 36 7.3 WSW 24 32 13 17 1020.3 1020.2 0.0
08/03:30pm 19.5 14.3 3.6 35 7.6 WSW 20 30 11 16 1020.2 1020.0 0.0
08/03:00pm 19.5 13.6 4.0 36 7.5 WSW 24 35 13 19 1020.3 1020.2 0.0
08/02:30pm 19.8 14.9 4.3 36 7.5 WSW 19 28 10 15 1020.2 1020.0 0.0
08/02:00pm 18.8 13.1 3.0 35 7.4 WSW 22 33 12 18 1020.6 1020.5 0.0
08/01:30pm 18.1 13.5 3.6 38 6.9 W 17 28 9 15 1020.8 1020.7 0.0
08/01:00pm 17.6 12.5 2.8 37 6.9 WSW 19 32 10 17 1021.3 1021.2 0.0
08/12:30pm 17.5 12.3 3.4 39 6.6 WSW 20 28 11 15 1021.8 1021.7 0.0
08/12:00pm 16.2 11.8 2.6 40 6.2 WSW 15 24 8 13 1022.5 1022.3 0.0
08/11:30am 15.2 11.9 2.7 43 5.7 WNW 9 13 5 7 1023.0 1022.8 0.0
08/11:00am 14.6 11.4 2.8 45 5.3 S 9 17 5 9 1023.4 1023.2 0.0
08/10:30am 13.2 9.5 2.4 48 4.8 S 11 17 6 9 1024.0 1023.9 0.0
08/10:00am 12.5 9.2 2.7 51 4.3 NE 9 13 5 7 1024.1 1024.0 0.0
08/09:30am 11.0 7.3 2.6 56 3.7 N 11 17 6 9 1024.2 1024.1 0.0
08/09:00am 9.8 5.7 2.2 59 3.2 N 13 17 7 9 1024.1 1024.0 0.0
08/08:30am 8.8 4.6 1.9 62 2.9 NNW 13 17 7 9 1024.3 1024.2 0.0
08/08:00am 7.9 4.5 2.0 66 2.5 NW 9 13 5 7 1024.2 1024.1 0.0
08/07:30am 6.6 2.3 1.1 68 2.2 WNW 13 20 7 11 1024.0 1023.9 0.0
08/07:00am 4.9 0.8 -0.1 70 1.9 WNW 11 17 6 9 1023.9 1023.8 0.0
08/06:30am 4.5 0.0 -0.3 71 1.8 WNW 13 17 7 9 1023.7 1023.6 0.0
08/06:00am 4.0 -0.9 -0.4 73 1.7 WNW 15 19 8 10 1023.4 1023.2 0.0
08/05:30am 4.8 -0.8 0.2 72 1.8 W 19 22 10 12 1023.2 1023.0 0.0
08/05:00am 4.9 0.8 -0.3 69 2.0 W 11 15 6 8 1023.4 1023.2 0.0
08/04:30am 5.9 1.8 -0.4 64 2.4 NW 11 17 6 9 1023.3 1023.1 0.0
08/04:00am 6.1 2.3 -0.4 63 2.5 NW 9 13 5 7 1023.1 1022.9 0.0
08/03:30am 3.6 1.1 -0.8 73 1.6 WNW 2 7 1 4 1023.2 1023.0 0.0
08/03:00am 3.7 -0.9 -0.9 72 1.7 W 13 15 7 8 1023.2 1023.0 0.0
08/02:30am 5.4 0.8 -0.8 64 2.4 NW 13 17 7 9 1023.4 1023.2 0.0
08/02:00am 5.4 1.2 -0.8 64 2.3 NW 11 15 6 8 1023.6 1023.5 0.0
08/01:30am 5.5 0.1 -1.0 63 2.5 WNW 17 22 9 12 1023.3 1023.1 0.0
08/01:00am 5.3 0.7 -0.9 64 2.3 W 13 20 7 11 1023.1 1022.9 0.0
08/12:30am 5.7 1.9 -1.0 62 2.5 WNW 9 15 5 8 1023.1 1022.9 0.0
08/12:00am 6.4 1.1 -0.8 60 2.8 WSW 17 20 9 11 1023.0 1022.8 0.0
 
Date/Time
EST
Temp
°C
App
Temp
°C
Dew
Point
°C
Rel
Hum
%
Delta-T
°C
Wind Press
QNH
hPa
Press
MSL
hPa
Rain since
9am
mm
Dir  Spd
km/h
Gust
km/h
Spd
kts
Gust
kts
07/11:30pm 6.4 1.7 -1.5 57 3.0 WSW 13 17 7 9 1023.1 1022.9 0.0
07/11:00pm 8.4 3.0 -1.4 50 3.8 SW 17 20 9 11 1023.3 1023.1 0.0
07/10:30pm 7.9 1.9 -1.6 51 3.6 WSW 20 24 11 13 1023.2 1023.0 0.0
07/10:00pm 9.1 3.2 -2.2 45 4.3 SW 19 24 10 13 1023.4 1023.2 0.0
07/09:30pm 9.4 3.3 -2.2 44 4.5 SW 20 30 11 16 1023.5 1023.4 0.0
07/09:00pm 8.9 4.8 -3.0 43 4.4 SW 9 13 5 7 1023.4 1023.2 0.0
07/08:30pm 10.0 4.4 -3.0 40 4.9 SW 17 26 9 14 1023.1 1022.9 0.0
07/08:00pm 10.0 3.8 -3.0 40 4.9 SW 20 26 11 14 1022.9 1022.7 0.0
07/07:30pm 10.7 4.5 -3.4 37 5.4 SW 20 26 11 14 1022.7 1022.5 0.0
07/07:00pm 11.1 4.9 -3.4 36 5.5 SW 20 30 11 16 1022.4 1022.2 0.0
07/06:30pm 11.5 5.5 -3.4 35 5.7 SW 19 28 10 15 1021.8 1021.7 0.0
07/06:00pm 11.3 6.0 -4.0 34 5.7 SW 15 20 8 11 1021.1 1021.0 0.0
07/05:30pm 12.7 6.6 -4.0 31 6.4 WSW 19 32 10 17 1020.7 1020.6 0.0
07/05:00pm 13.6 6.9 -4.5 28 6.9 SW 22 32 12 17 1020.2 1020.0 0.0
07/04:30pm 14.9 8.3 -3.4 28 7.3 WSW 22 30 12 16 1020.0 1019.8 0.0
07/04:00pm 15.6 7.4 -3.8 26 7.7 WSW 30 44 16 24 1019.6 1019.4 0.0
07/03:30pm 16.3 8.1 -4.3 24 8.2 WSW 30 44 16 24 1019.2 1019.0 0.0
07/03:05pm 16.6 8.1 -3.0 26 8.0 SW 32 50 17 27 1019.0 1018.8 0.0
07/03:00pm 17.0 9.2 -1.1 29 7.7 WSW 30 41 16 22 1018.9 1018.7 0.0
07/02:32pm 17.0 8.1 -2.1 27 8.0 WSW 35 57 19 31 1018.5 1018.3 0.0
07/02:30pm 17.0 7.8 -4.3 23 8.5 WSW 35 48 19 26 1018.4 1018.2 0.0
07/02:00pm 16.7 9.6 5.3 47 5.5 WSW 32 43 17 23 1018.4 1018.2 0.0
07/01:30pm 17.2 11.2 5.5 46 5.7 WSW 26 37 14 20 1018.1 1018.0 0.0
07/01:00pm 17.7 11.8 5.9 46 5.8 WSW 26 43 14 23 1018.1 1018.0 0.0
07/12:30pm 18.4 12.3 6.6 46 6.0 WSW 28 39 15 21 1018.6 1018.4 0.0
07/12:00pm 17.5 12.1 6.4 48 5.5 WSW 24 32 13 17 1019.0 1018.8 0.0
07/11:30am 17.9 13.3 6.7 48 5.6 W 20 32 11 17 1019.2 1019.0 0.0
07/11:00am 17.1 13.0 6.3 49 5.4 WSW 17 32 9 17 1019.7 1019.5 0.0
07/10:30am 16.2 11.8 7.4 56 4.4 WSW 20 30 11 16 1020.0 1019.8 0.0
07/10:00am 15.0 12.2 8.7 66 3.2 WNW 13 20 7 11 1020.0 1019.8 0.0
07/09:30am 13.6 10.6 9.1 74 2.3 NW 15 20 8 11 1020.0 1019.8 0.0
07/09:00am 12.4 9.6 8.7 78 1.9 NW 13 20 7 11 1020.1 1019.9 0.0
07/08:30am 10.9 8.1 8.7 86 1.1 NW 13 17 7 9 1019.8 1019.6 0.0
07/08:00am 10.1 8.3 8.0 87 1.0 NW 7 11 4 6 1019.6 1019.4 0.0
07/07:30am 8.9 6.6 7.4 90 0.7 WNW 9 13 5 7 1019.3 1019.1 0.0
07/07:00am 7.3 4.7 6.1 92 0.5 NW 9 11 5 6 1018.8 1018.6 0.0
07/06:30am 6.8 4.7 5.6 92 0.5 NW 6 9 3 5 1018.4 1018.2 0.0
07/06:00am 6.3 4.0 4.8 90 0.7 NW 6 7 3 4 1018.1 1018.0 0.0
07/05:30am 6.8 5.0 5.6 92 0.5 NW 4 7 2 4 1017.9 1017.8 0.0
07/05:00am 8.0 5.4 6.3 89 0.8 NW 9 11 5 6 1017.7 1017.6 0.0
07/04:30am 7.8 5.7 6.6 92 0.6 NW 7 9 4 5 1017.7 1017.6 0.0
07/04:00am 7.7 5.5 6.2 90 0.7 NW 7 9 4 5 1017.7 1017.6 0.0
07/03:30am 7.5 5.5 6.3 92 0.6 NW 6 7 3 4 1017.6 1017.5 0.0
07/03:00am 8.1 5.9 6.4 89 0.8 NW 7 11 4 6 1017.5 1017.4 0.0
07/02:30am 8.9 6.9 6.3 84 1.2 NW 6 7 3 4 1017.6 1017.5 0.0
07/02:00am 9.6 7.6 6.9 83 1.3 NNW 7 11 4 6 1017.5 1017.4 0.0
07/01:30am 9.8 7.5 5.8 76 1.9 NNW 7 9 4 5 1017.5 1017.4 0.0
07/01:00am 10.8 8.4 7.1 78 1.8 NNW 9 13 5 7 1017.4 1017.3 0.0
07/12:30am 9.9 8.3 6.4 79 1.7 NNW 4 7 2 4 1017.4 1017.3 0.0
07/12:00am 12.5 9.4 7.2 70 2.6 NNW 13 17 7 9 1017.3 1017.2 0.0
 
Date/Time
EST
Temp
°C
App
Temp
°C
Dew
Point
°C
Rel
Hum
%
Delta-T
°C
Wind Press
QNH
hPa
Press
MSL
hPa
Rain since
9am
mm
Dir  Spd
km/h
Gust
km/h
Spd
kts
Gust
kts
06/11:30pm 12.2 9.5 7.5 73 2.3 NNW 11 15 6 8 1017.4 1017.3 0.0
06/11:00pm 11.3 9.5 7.8 79 1.7 NW 7 9 4 5 1017.4 1017.3 0.0
06/10:30pm 10.1 8.3 7.3 83 1.4 W 6 7 3 4 1017.5 1017.4 0.0
06/10:00pm 12.9 10.3 7.8 71 2.5 WNW 11 15 6 8 1017.6 1017.5 0.0
06/09:30pm 12.1 9.5 7.8 75 2.1 WNW 11 13 6 7 1017.7 1017.6 0.0
06/09:00pm 13.6 11.3 8.9 73 2.4 NW 11 13 6 7 1017.7 1017.6 0.0
06/08:30pm 14.2 12.7 9.2 72 2.6 WNW 7 9 4 5 1017.7 1017.6 0.0
06/08:00pm 14.4 13.2 9.6 73 2.5 WNW 6 9 3 5 1017.6 1017.5 0.0
06/07:30pm 15.4 13.7 10.0 70 2.9 WNW 9 9 5 5 1017.4 1017.3 0.0
06/07:00pm 15.5 14.9 10.5 72 2.7 WNW 4 6 2 3 1017.2 1017.1 0.0
06/06:30pm 17.6 16.6 10.9 65 3.7 WNW 7 9 4 5 1016.9 1016.7 0.0

Other formats

Comma delimited format used in spreadsheet applications
http://www.bom.gov.au/fwo/IDN60801/IDN60801.95740.axf

JavaScript Object Notation format (JSON) in row-major order
http://www.bom.gov.au/fwo/IDN60801/IDN60801.95740.json

Data quality

Most of these data are generated automatically and are frequently updated. Quality checks on data are not normally performed. It is possible for incorrect values to appear. Refer to information at About Latest Weather Observations and please check the disclaimer before using these data.